Hlavní strana
METAR-TAF:

METAR-TAF

Letiště :

Udine, Itálie

zeměpisná šířka: 45-59N, zeměpisná délka: 013-02E, výška: 51 m

Aktuální stav počasí

Zpráva byla vytvořena před 20 hodinami a 35 minutami, v 14:55 UTC
Teplota 7°C
Vlhkost vzduchu 57%
Tlak 1008 hPa
Viditelnost 10 km a více
Skoro jasno ve výšce 7000 ft
Polojasno ve výšce 8000 ft
Oblačno až skoro zataženo ve výšce 9000 ft

METAR: LIPI 201455Z /////KT 9999 FEW070 SCT080 BKN090 07/M01 Q1008 RMK OVC VIS MIN 9999 WIND THR06 VRB01KT WIND THR24 26002KT BLU

Čas: 12:30 (11:30 UTC)

Předpověď počasí

Zpráva byla vytvořena před 21 hodinami a 30 minutami, v 14:00 UTC
Předpověď platná od 20 v 15 UTC do 20 v 24 UTC
vítr z různých směrů 5 kt
Viditelnost 10 km a více
Polojasno ve výšce 6000 ft
Oblačno až skoro zataženo ve výšce 9000 ft

TAF: LIPI 201400Z 2015/2024 VRB05KT 9999 SCT060 BKN090

Stav a předpovědi počasí z více než 4 000 letišť (zprávy METAR a TAF).

Červené a žluté tečky na mapě představují dostupné meteorologické stanice.

Když kurzor umístíte na tečku, zobrazí se název stanice.

Pak kliknutím zobrazíte stav a předpověď počasí.

Chcete-li změnit mapu, kliknutím na zelené tlačítko se znaménkem +mapu přiblížíte, kliknutím na zelené tlačítko se znaménkem – mapu oddálíte a kliknutím na zelené šipky přejdete na sousední mapy.


METAR-TAF: